Sirius — V7KI6 — position and weather

sailwx.info

Track history (hours):
 
Tides and Currents Weather Stations Pressure Air Temp Water Temp Dewpoint Dewpoint Depression Visibility Wind Speed Wind Dir Waves Ship Positions

Sirius

Last reported at 2015-Apr-17 22:22 UTC. Time now 2015-Apr-18 04:53 UTC.
Position N 33°49' E 030°20'.

Length 178.1 m; beam 28.2 m; draft 11.5 m.

Type: Cargo ship. MMSI: 538090245.

Date/timePositionNaut miles runAvg speedWind from/ knotsBaromVisibWave heightAir tempDewpointWater temp
2015-Apr-17 22:22N 33°49' E 030°20'1316.3
2015-Apr-17 21:33N 33°36' E 030°17'3316.4
2015-Apr-17 19:33N 33°04' E 030°10'5816.8
2015-Apr-17 16:05N 32°07' E 029°57'5912.9
2015-Apr-17 11:31N 31°09' E 029°48'0 0.0
2015-Apr-17 10:13N 31°09' E 029°48'0 0.0
2015-Apr-17 09:31N 31°09' E 029°48'0 0.0
2015-Apr-17 00:04N 31°09' E 029°48'0 0.0
2015-Apr-16 22:31N 31°09' E 029°48'3 1.3
2015-Apr-16 20:33N 31°11' E 029°48'3 1.8
2015-Apr-16 19:03N 31°14' E 029°48'  
2015-Apr-13 14:33N 34°17' E 032°59'1717.2
2015-Apr-13 13:33N 34°33' E 033°08'8 8.3
2015-Apr-13 12:33N 34°39' E 033°01'0 0.0
2015-Apr-13 11:32N 34°39' E 033°01'0 0.0
2015-Apr-13 10:32N 34°39' E 033°01'0 0.0
2015-Apr-13 09:32N 34°39' E 033°01'0 0.0
2015-Apr-13 08:32N 34°39' E 033°01'0 0.0
2015-Apr-13 07:32N 34°39' E 033°01'0 0.0
2015-Apr-13 06:32N 34°39' E 033°01'0 0.0
2015-Apr-13 05:32N 34°39' E 033°01'0 0.0
2015-Apr-13 04:32N 34°39' E 033°01'2 1.9
2015-Apr-13 03:33N 34°39' E 033°03'2 1.6
2015-Apr-13 02:31N 34°40' E 033°05'0 0.1
2015-Apr-13 01:28N 34°40' E 033°05'0 0.1
2015-Apr-13 00:31N 34°40' E 033°05'0 0.0
2015-Apr-12 23:31N 34°40' E 033°05'0 0.0
2015-Apr-12 22:31N 34°40' E 033°05'0 0.0
2015-Apr-12 21:31N 34°40' E 033°05'0 0.0
2015-Apr-12 20:31N 34°40' E 033°05'0 0.0
2015-Apr-12 19:31N 34°40' E 033°05'0 0.0
2015-Apr-12 18:31N 34°40' E 033°05'0 0.0
2015-Apr-12 17:31N 34°40' E 033°05'0 0.1
2015-Apr-12 16:28N 34°40' E 033°05'0 0.2
2015-Apr-12 15:31N 34°40' E 033°05'0 0.0
2015-Apr-12 14:31N 34°40' E 033°05'0 0.1
2015-Apr-12 13:28N 34°40' E 033°05'0 0.1
2015-Apr-12 12:31N 34°40' E 033°05'0 0.0
2015-Apr-12 11:31N 34°40' E 033°05'0 0.0
2015-Apr-12 10:31N 34°40' E 033°05'0 0.0
2015-Apr-12 09:31N 34°40' E 033°05'0 0.1
2015-Apr-12 08:31N 34°40' E 033°05'0 0.0
2015-Apr-12 07:28N 34°40' E 033°05'0 0.1
2015-Apr-12 06:28N 34°40' E 033°05'0 0.1
2015-Apr-12 05:31N 34°40' E 033°05'0 0.0
2015-Apr-12 04:31N 34°40' E 033°05'0 0.1
2015-Apr-12 03:31N 34°40' E 033°05'0 0.0
2015-Apr-12 02:31N 34°40' E 033°05'0 0.0
2015-Apr-12 01:31N 34°40' E 033°05'0 0.1
2015-Apr-12 00:31N 34°40' E 033°05'0 0.0
2015-Apr-11 23:31N 34°40' E 033°05'0 0.1
2015-Apr-11 22:31N 34°40' E 033°05'0 0.1
2015-Apr-11 21:31N 34°40' E 033°05'0 0.1
2015-Apr-11 20:31N 34°40' E 033°05'0 0.0
2015-Apr-11 19:31N 34°40' E 033°05'0 0.1
2015-Apr-11 18:34N 34°40' E 033°05'7 7.4
2015-Apr-11 17:34N 34°36' E 033°12'20 0.4
2015-Apr-09 20:31N 34°38' E 033°37'1616.3
2015-Apr-09 19:34N 34°33' E 033°19'1616.1
2015-Apr-09 18:34N 34°27' E 033°00'1616.0
2015-Apr-09 17:33N 34°28' E 032°41'39217.0
2015-Apr-08 18:30N 34°38' E 024°45'2017.8
2015-Apr-08 17:23N 34°38' E 024°21'  
Track history (hours):
 
Tides and Currents Weather Stations Pressure Air Temp Water Temp Dewpoint Dewpoint Depression Visibility Wind Speed Wind Dir Waves Ship Positions

Sirius

Last reported at 2015-Apr-17 22:22 UTC. Time now 2015-Apr-18 04:53 UTC.
Position N 33°49' E 030°20'.

Length 178.1 m; beam 28.2 m; draft 11.5 m.

Type: Cargo ship. MMSI: 538090245.

Date/timePositionNaut miles runAvg speedWind from/ knotsBaromVisibWave heightAir tempDewpointWater temp
2015-Apr-17 22:22N 33°49' E 030°20'1316.3
2015-Apr-17 21:33N 33°36' E 030°17'3316.4
2015-Apr-17 19:33N 33°04' E 030°10'5816.8
2015-Apr-17 16:05N 32°07' E 029°57'5912.9
2015-Apr-17 11:31N 31°09' E 029°48'0 0.0
2015-Apr-17 10:13N 31°09' E 029°48'0 0.0
2015-Apr-17 09:31N 31°09' E 029°48'0 0.0
2015-Apr-17 00:04N 31°09' E 029°48'0 0.0
2015-Apr-16 22:31N 31°09' E 029°48'3 1.3
2015-Apr-16 20:33N 31°11' E 029°48'3 1.8
2015-Apr-16 19:03N 31°14' E 029°48'  
2015-Apr-13 14:33N 34°17' E 032°59'1717.2
2015-Apr-13 13:33N 34°33' E 033°08'8 8.3
2015-Apr-13 12:33N 34°39' E 033°01'0 0.0
2015-Apr-13 11:32N 34°39' E 033°01'0 0.0
2015-Apr-13 10:32N 34°39' E 033°01'0 0.0
2015-Apr-13 09:32N 34°39' E 033°01'0 0.0
2015-Apr-13 08:32N 34°39' E 033°01'0 0.0
2015-Apr-13 07:32N 34°39' E 033°01'0 0.0
2015-Apr-13 06:32N 34°39' E 033°01'0 0.0
2015-Apr-13 05:32N 34°39' E 033°01'0 0.0
2015-Apr-13 04:32N 34°39' E 033°01'2 1.9
2015-Apr-13 03:33N 34°39' E 033°03'2 1.6
2015-Apr-13 02:31N 34°40' E 033°05'0 0.1
2015-Apr-13 01:28N 34°40' E 033°05'0 0.1
2015-Apr-13 00:31N 34°40' E 033°05'0 0.0
2015-Apr-12 23:31N 34°40' E 033°05'0 0.0
2015-Apr-12 22:31N 34°40' E 033°05'0 0.0
2015-Apr-12 21:31N 34°40' E 033°05'0 0.0
2015-Apr-12 20:31N 34°40' E 033°05'0 0.0
2015-Apr-12 19:31N 34°40' E 033°05'0 0.0
2015-Apr-12 18:31N 34°40' E 033°05'0 0.0
2015-Apr-12 17:31N 34°40' E 033°05'0 0.1
2015-Apr-12 16:28N 34°40' E 033°05'0 0.2
2015-Apr-12 15:31N 34°40' E 033°05'0 0.0
2015-Apr-12 14:31N 34°40' E 033°05'0 0.1
2015-Apr-12 13:28N 34°40' E 033°05'0 0.1
2015-Apr-12 12:31N 34°40' E 033°05'0 0.0
2015-Apr-12 11:31N 34°40' E 033°05'0 0.0
2015-Apr-12 10:31N 34°40' E 033°05'0 0.0
2015-Apr-12 09:31N 34°40' E 033°05'0 0.1
2015-Apr-12 08:31N 34°40' E 033°05'0 0.0
2015-Apr-12 07:28N 34°40' E 033°05'0 0.1
2015-Apr-12 06:28N 34°40' E 033°05'0 0.1
2015-Apr-12 05:31N 34°40' E 033°05'0 0.0
2015-Apr-12 04:31N 34°40' E 033°05'0 0.1
2015-Apr-12 03:31N 34°40' E 033°05'0 0.0
2015-Apr-12 02:31N 34°40' E 033°05'0 0.0
2015-Apr-12 01:31N 34°40' E 033°05'0 0.1
2015-Apr-12 00:31N 34°40' E 033°05'0 0.0
2015-Apr-11 23:31N 34°40' E 033°05'0 0.1
2015-Apr-11 22:31N 34°40' E 033°05'0 0.1
2015-Apr-11 21:31N 34°40' E 033°05'0 0.1
2015-Apr-11 20:31N 34°40' E 033°05'0 0.0
2015-Apr-11 19:31N 34°40' E 033°05'0 0.1
2015-Apr-11 18:34N 34°40' E 033°05'7 7.4
2015-Apr-11 17:34N 34°36' E 033°12'20 0.4
2015-Apr-09 20:31N 34°38' E 033°37'1616.3
2015-Apr-09 19:34N 34°33' E 033°19'1616.1
2015-Apr-09 18:34N 34°27' E 033°00'1616.0
2015-Apr-09 17:33N 34°28' E 032°41'39217.0
2015-Apr-08 18:30N 34°38' E 024°45'2017.8
2015-Apr-08 17:23N 34°38' E 024°21'  

Dump ship's entire track history